createdAt,value
2019-03-18T00:00:06.054Z,6.50
2019-03-18T00:02:36.272Z,6.93
2019-03-18T00:05:06.597Z,4.73
2019-03-18T00:07:36.920Z,4.37
2019-03-18T00:10:08.507Z,5.23
2019-03-18T00:12:39.003Z,4.57
2019-03-18T00:15:10.063Z,4.50
2019-03-18T00:17:40.264Z,4.47
2019-03-18T00:20:11.513Z,5.63
2019-03-18T00:22:41.731Z,4.97
2019-03-18T00:25:14.309Z,7.07
2019-03-18T00:27:44.842Z,8.97
2019-03-18T00:30:19.445Z,3.63
2019-03-18T00:32:49.900Z,5.40
2019-03-18T00:35:20.420Z,3.77
2019-03-18T00:37:50.948Z,4.10
2019-03-18T00:40:22.089Z,5.10
2019-03-18T00:42:52.416Z,3.80
2019-03-18T00:45:22.738Z,4.60
2019-03-18T00:47:53.060Z,4.57
2019-03-18T00:50:23.391Z,4.47
2019-03-18T00:52:53.708Z,5.00
2019-03-18T00:55:25.058Z,4.43
2019-03-18T00:57:55.388Z,5.90
2019-03-18T01:00:25.501Z,5.03
2019-03-18T01:02:55.828Z,5.47
2019-03-18T01:05:26.151Z,6.17
2019-03-18T01:07:57.928Z,4.50
2019-03-18T01:10:28.126Z,4.70
2019-03-18T01:12:58.451Z,5.70
2019-03-18T01:15:30.072Z,6.33
2019-03-18T01:18:01.761Z,3.90
2019-03-18T01:20:32.088Z,5.80
2019-03-18T01:23:02.449Z,4.23
2019-03-18T01:25:32.735Z,5.70
2019-03-18T01:28:02.960Z,5.70
2019-03-18T01:30:33.384Z,4.17
2019-03-18T01:33:03.606Z,5.20
2019-03-18T01:35:33.926Z,6.40
2019-03-18T01:38:04.250Z,5.40
2019-03-18T01:40:34.581Z,4.63
2019-03-18T01:43:04.900Z,4.93
2019-03-18T01:45:40.661Z,8.23
2019-03-18T01:48:12.746Z,5.80
2019-03-18T01:50:44.423Z,4.30
2019-03-18T01:53:14.592Z,5.50
2019-03-18T01:55:44.934Z,3.87
2019-03-18T01:58:15.651Z,3.63
2019-03-18T02:00:46.002Z,3.83
2019-03-18T02:03:16.299Z,4.63
2019-03-18T02:05:46.421Z,3.20
2019-03-18T02:08:16.663Z,3.40
2019-03-18T02:10:47.065Z,3.67
2019-03-18T02:13:17.205Z,3.77
2019-03-18T02:15:53.735Z,2.60
2019-03-18T02:18:20.807Z,2.90
2019-03-18T02:20:51.150Z,4.27
2019-03-18T02:23:21.352Z,2.50
2019-03-18T02:25:53.105Z,3.20
2019-03-18T02:28:23.435Z,3.70
2019-03-18T02:30:53.763Z,3.60
2019-03-18T02:33:24.289Z,4.20
2019-03-18T02:35:54.609Z,4.83
2019-03-18T02:38:24.939Z,4.23
2019-03-18T02:40:55.253Z,4.23
2019-03-18T02:43:25.588Z,4.77
2019-03-18T02:46:09.313Z,4.57
2019-03-18T02:48:27.559Z,5.00
2019-03-18T02:50:57.891Z,4.37
2019-03-18T02:53:28.213Z,3.20
2019-03-18T02:56:01.423Z,3.17
2019-03-18T02:58:31.623Z,3.53
2019-03-18T03:01:01.946Z,3.73
2019-03-18T03:03:32.476Z,3.13
2019-03-18T03:06:02.796Z,4.10
2019-03-18T03:08:39.443Z,3.57
2019-03-18T03:11:11.227Z,2.93
2019-03-18T03:13:41.553Z,4.00
2019-03-18T03:16:25.716Z,4.63
2019-03-18T03:18:44.044Z,3.23
2019-03-18T03:21:14.372Z,3.37
2019-03-18T03:23:44.693Z,3.20
2019-03-18T03:26:14.913Z,4.13
2019-03-18T03:28:45.135Z,4.27
2019-03-18T03:31:16.397Z,3.47
2019-03-18T03:33:46.601Z,4.27
2019-03-18T03:36:16.935Z,3.13
2019-03-18T03:38:47.248Z,2.33
2019-03-18T03:41:18.310Z,4.20
2019-03-18T03:43:49.128Z,3.40
2019-03-18T03:46:19.665Z,2.50
2019-03-18T03:48:50.818Z,3.87
2019-03-18T03:51:21.123Z,4.03
2019-03-18T03:53:51.571Z,3.63
2019-03-18T03:56:22.207Z,3.03
2019-03-18T03:58:52.711Z,4.53
2019-03-18T04:01:24.345Z,4.10
2019-03-18T04:03:57.467Z,4.63
2019-03-18T04:06:27.988Z,6.20
2019-03-18T04:08:58.304Z,4.10
2019-03-18T04:11:31.499Z,4.03
2019-03-18T04:14:01.822Z,5.23
2019-03-18T04:16:33.169Z,5.90
2019-03-18T04:19:03.494Z,4.33
2019-03-18T04:21:33.840Z,5.97
2019-03-18T04:24:04.243Z,5.97
2019-03-18T04:26:34.570Z,5.67
2019-03-18T04:29:04.895Z,5.50
2019-03-18T04:31:35.119Z,6.40
2019-03-18T04:34:07.537Z,4.37
2019-03-18T04:36:37.916Z,5.33
2019-03-18T04:39:11.028Z,5.13
2019-03-18T04:41:41.327Z,5.00
2019-03-18T04:44:11.649Z,5.00
2019-03-18T04:46:41.874Z,4.97
2019-03-18T04:49:12.192Z,5.83
2019-03-18T04:51:42.521Z,5.70
2019-03-18T04:54:12.841Z,3.70
2019-03-18T04:56:43.166Z,3.93
2019-03-18T04:59:13.511Z,3.03
2019-03-18T05:01:43.816Z,3.60
2019-03-18T05:04:14.037Z,3.13
2019-03-18T05:06:44.975Z,2.80
2019-03-18T05:09:15.302Z,2.40
2019-03-18T05:11:45.622Z,3.27
2019-03-18T05:14:15.949Z,2.23
2019-03-18T05:16:46.086Z,2.37
2019-03-18T05:19:16.288Z,2.60
2019-03-18T05:21:46.590Z,2.40
2019-03-18T05:24:17.753Z,2.20
2019-03-18T05:26:47.975Z,2.10
2019-03-18T05:29:18.304Z,3.37
2019-03-18T05:31:48.524Z,3.83
2019-03-18T05:34:19.055Z,3.30
2019-03-18T05:36:49.375Z,3.40
2019-03-18T05:39:19.699Z,3.83
2019-03-18T05:41:49.925Z,4.90
2019-03-18T05:44:21.070Z,3.83
2019-03-18T05:46:51.390Z,5.77
2019-03-18T05:49:21.639Z,4.50
2019-03-18T05:51:52.040Z,4.50
2019-03-18T05:54:22.256Z,4.97
2019-03-18T05:56:52.580Z,5.70
2019-03-18T05:59:22.910Z,4.47
2019-03-18T06:01:57.464Z,14.50
2019-03-18T06:04:34.768Z,13.90
2019-03-18T06:07:05.963Z,10.80
2019-03-18T06:09:36.284Z,8.03
2019-03-18T06:12:06.612Z,6.70
2019-03-18T06:14:36.831Z,6.40
2019-03-18T06:17:07.056Z,6.67
2019-03-18T06:19:37.374Z,6.53
2019-03-18T06:22:07.700Z,5.77
2019-03-18T06:24:38.024Z,5.60
2019-03-18T06:27:08.350Z,5.70
2019-03-18T06:29:38.676Z,5.93
2019-03-18T06:32:09.204Z,3.70
2019-03-18T06:34:39.448Z,6.17
2019-03-18T06:37:09.644Z,4.43
2019-03-18T06:39:39.969Z,6.20
2019-03-18T06:42:10.292Z,5.00
2019-03-18T06:44:40.518Z,4.00
2019-03-18T06:47:10.841Z,6.97
2019-03-18T06:49:41.169Z,6.10
2019-03-18T06:52:11.386Z,5.63
2019-03-18T06:54:41.706Z,5.63
2019-03-18T06:57:12.134Z,5.87
2019-03-18T06:59:42.470Z,7.60
2019-03-18T07:02:12.784Z,4.60
2019-03-18T07:04:43.105Z,5.03
2019-03-18T07:07:13.431Z,4.17
2019-03-18T07:09:44.444Z,5.93
2019-03-18T07:12:14.694Z,5.37
2019-03-18T07:14:45.123Z,4.70
2019-03-18T07:17:15.241Z,4.90
2019-03-18T07:19:45.567Z,4.30
2019-03-18T07:22:15.784Z,4.20
2019-03-18T07:24:46.107Z,5.80
2019-03-18T07:27:16.432Z,6.00
2019-03-18T07:29:46.755Z,4.63
2019-03-18T07:32:17.483Z,4.83
2019-03-18T07:34:48.801Z,4.27
2019-03-18T07:37:20.413Z,6.43
2019-03-18T07:39:52.433Z,5.33
2019-03-18T07:42:23.266Z,5.83
2019-03-18T07:44:53.434Z,5.00
2019-03-18T07:47:23.493Z,5.10
2019-03-18T07:49:53.855Z,4.23
2019-03-18T07:52:24.178Z,5.30
2019-03-18T07:54:54.299Z,5.13
2019-03-18T07:57:24.775Z,4.43
2019-03-18T07:59:55.049Z,6.50
2019-03-18T08:02:25.580Z,4.43
2019-03-18T08:04:56.007Z,3.83
2019-03-18T08:07:26.332Z,4.67
2019-03-18T08:10:00.743Z,4.43
2019-03-18T08:12:31.421Z,4.93
2019-03-18T08:15:02.266Z,5.00
2019-03-18T08:17:32.962Z,4.67
2019-03-18T08:20:03.773Z,5.40
2019-03-18T08:22:34.110Z,5.90
2019-03-18T08:25:05.333Z,6.20
2019-03-18T08:27:35.580Z,5.43
2019-03-18T08:30:08.971Z,5.67
2019-03-18T08:32:39.399Z,5.67
2019-03-18T08:35:09.826Z,4.53
2019-03-18T08:37:40.149Z,6.10
2019-03-18T08:40:13.639Z,6.90
2019-03-18T08:42:47.148Z,5.67
2019-03-18T08:45:17.782Z,4.37
2019-03-18T08:47:48.306Z,5.40
2019-03-18T08:50:18.632Z,5.20
2019-03-18T08:52:48.954Z,4.53
2019-03-18T08:55:19.176Z,4.63
2019-03-18T08:57:49.498Z,4.23
2019-03-18T09:00:19.824Z,4.60
2019-03-18T09:02:50.150Z,4.83
2019-03-18T09:05:20.474Z,4.77
2019-03-18T09:07:50.612Z,4.77
2019-03-18T09:10:21.118Z,4.50
2019-03-18T09:12:51.444Z,5.17
2019-03-18T09:15:21.771Z,5.60
2019-03-18T09:17:52.090Z,4.77
2019-03-18T09:20:23.235Z,6.30
2019-03-18T09:22:53.560Z,4.57
2019-03-18T09:25:23.881Z,3.63
2019-03-18T09:27:54.309Z,5.87
2019-03-18T09:30:24.633Z,6.00
2019-03-18T09:32:54.958Z,3.63
2019-03-18T09:35:25.488Z,5.00
2019-03-18T09:37:55.817Z,4.67
2019-03-18T09:40:29.135Z,4.30
2019-03-18T09:42:58.011Z,5.50
2019-03-18T09:45:28.420Z,4.00
2019-03-18T09:47:58.852Z,3.53
2019-03-18T09:50:30.400Z,4.00
2019-03-18T09:53:00.590Z,3.43
2019-03-18T09:55:31.148Z,3.50
2019-03-18T09:58:01.474Z,3.60
2019-03-18T10:00:31.799Z,3.80
2019-03-18T10:03:02.123Z,3.97
2019-03-18T10:05:32.346Z,2.70
2019-03-18T10:08:02.565Z,3.53
2019-03-18T10:10:33.101Z,3.13
2019-03-18T10:13:03.317Z,2.83
2019-03-18T10:15:34.190Z,3.83
2019-03-18T10:18:04.681Z,3.23
2019-03-18T10:20:35.007Z,3.57
2019-03-18T10:23:05.509Z,2.80
2019-03-18T10:25:35.863Z,3.40
2019-03-18T10:28:06.186Z,4.97
2019-03-18T10:30:36.505Z,3.63
2019-03-18T10:33:06.654Z,3.87
2019-03-18T10:35:36.769Z,4.03
2019-03-18T10:38:06.954Z,5.33
2019-03-18T10:40:37.394Z,5.33
2019-03-18T10:43:07.921Z,3.40
2019-03-18T10:45:38.245Z,3.90
2019-03-18T10:48:08.578Z,2.90
2019-03-18T10:50:38.754Z,3.60
2019-03-18T10:53:09.131Z,4.27
2019-03-18T10:55:39.546Z,3.20
2019-03-18T10:58:09.786Z,4.07
2019-03-18T11:00:40.114Z,3.80
2019-03-18T11:03:10.234Z,4.10
2019-03-18T11:05:40.738Z,4.53
2019-03-18T11:08:10.925Z,4.93
2019-03-18T11:10:41.181Z,4.50
2019-03-18T11:13:11.331Z,4.40
2019-03-18T11:15:41.622Z,4.63
2019-03-18T11:18:12.048Z,4.27
2019-03-18T11:20:42.382Z,5.57
2019-03-18T11:23:12.695Z,4.50
2019-03-18T11:25:42.916Z,5.60
2019-03-18T11:28:13.163Z,5.80
2019-03-18T11:30:43.359Z,5.17
2019-03-18T11:33:14.095Z,5.60
2019-03-18T11:35:44.316Z,6.73
2019-03-18T11:38:14.647Z,6.80
2019-03-18T11:40:44.864Z,6.27
2019-03-18T11:43:15.083Z,7.87
2019-03-18T11:45:45.408Z,7.77
2019-03-18T11:48:17.619Z,9.10
2019-03-18T11:50:51.178Z,9.93
2019-03-18T11:53:21.504Z,10.07
2019-03-18T11:55:51.752Z,9.53
2019-03-18T11:58:21.865Z,8.27
2019-03-18T12:00:52.431Z,16.23
2019-03-18T12:03:22.593Z,13.63
2019-03-18T12:05:52.937Z,9.33
2019-03-18T12:08:23.368Z,8.80
2019-03-18T12:10:53.664Z,8.93
2019-03-18T12:13:25.220Z,7.43
2019-03-18T12:15:55.542Z,6.00
2019-03-18T12:18:25.866Z,6.93
2019-03-18T12:20:56.478Z,7.33
2019-03-18T12:23:26.604Z,7.40
2019-03-18T12:25:56.842Z,6.87
2019-03-18T12:28:27.171Z,6.37
2019-03-18T12:30:57.486Z,5.07
2019-03-18T12:33:28.017Z,5.30
2019-03-18T12:35:58.544Z,4.87
2019-03-18T12:38:29.283Z,5.37
2019-03-18T12:40:59.498Z,5.03
2019-03-18T12:43:29.831Z,5.10
2019-03-18T12:46:00.257Z,5.27
2019-03-18T12:48:30.781Z,4.57
2019-03-18T12:51:01.514Z,5.17
2019-03-18T12:53:32.045Z,5.23
2019-03-18T12:56:02.366Z,6.07
2019-03-18T12:58:32.931Z,4.47
2019-03-18T13:01:12.121Z,3.70
2019-03-18T13:03:36.818Z,3.37
2019-03-18T13:06:07.450Z,5.80
2019-03-18T13:08:37.881Z,5.23
2019-03-18T13:11:09.739Z,4.67
2019-03-18T13:13:40.279Z,5.90
2019-03-18T13:16:10.595Z,4.17
2019-03-18T13:18:40.913Z,5.00
2019-03-18T13:21:11.238Z,5.77
2019-03-18T13:23:44.432Z,4.77
2019-03-18T13:26:14.856Z,6.17
2019-03-18T13:28:45.179Z,4.80
2019-03-18T13:31:15.542Z,6.10
2019-03-18T13:33:45.937Z,4.63
2019-03-18T13:36:16.258Z,5.50
2019-03-18T13:38:46.578Z,5.87
2019-03-18T13:41:16.928Z,4.70
2019-03-18T13:43:47.336Z,4.17
2019-03-18T13:46:18.562Z,3.90
2019-03-18T13:48:49.233Z,3.93
2019-03-18T13:51:21.026Z,3.93
2019-03-18T13:53:51.497Z,5.27
2019-03-18T13:56:21.850Z,4.43
2019-03-18T13:58:53.577Z,5.00
2019-03-18T14:01:23.900Z,4.20
2019-03-18T14:03:54.229Z,4.33
2019-03-18T14:06:24.333Z,4.43
2019-03-18T14:08:54.514Z,4.03
2019-03-18T14:11:25.093Z,5.93
2019-03-18T14:13:55.420Z,4.77
2019-03-18T14:16:25.743Z,4.40
2019-03-18T14:18:56.066Z,5.60
2019-03-18T14:21:33.143Z,4.53
2019-03-18T14:23:58.356Z,4.53
2019-03-18T14:26:28.780Z,3.90
2019-03-18T14:28:59.109Z,5.97
2019-03-18T14:31:29.229Z,6.23
2019-03-18T14:33:59.552Z,4.90
2019-03-18T14:36:30.077Z,4.50
2019-03-18T14:39:00.258Z,5.67
2019-03-18T14:41:30.355Z,4.80
2019-03-18T14:44:00.747Z,6.40
2019-03-18T14:46:31.070Z,7.40
2019-03-18T14:49:01.392Z,4.90
2019-03-18T14:51:31.723Z,5.63
2019-03-18T14:54:02.141Z,5.07
2019-03-18T14:56:32.406Z,4.50
2019-03-18T14:59:03.200Z,5.33
2019-03-18T15:01:33.422Z,8.00
2019-03-18T15:04:03.747Z,4.63
2019-03-18T15:06:34.073Z,4.70
2019-03-18T15:09:06.253Z,4.93
2019-03-18T15:11:36.768Z,5.37
2019-03-18T15:14:07.090Z,4.33
2019-03-18T15:16:38.949Z,4.23
2019-03-18T15:19:09.271Z,4.47
2019-03-18T15:21:39.496Z,5.77
2019-03-18T15:24:16.919Z,4.87
2019-03-18T15:26:41.783Z,5.37
2019-03-18T15:29:12.108Z,5.60
2019-03-18T15:31:42.840Z,5.40
2019-03-18T15:34:13.168Z,5.17
2019-03-18T15:36:43.487Z,4.80
2019-03-18T15:39:13.916Z,6.20
2019-03-18T15:41:44.372Z,4.80
2019-03-18T15:44:14.665Z,6.23
2019-03-18T15:46:44.992Z,5.13
2019-03-18T15:49:15.314Z,6.03
2019-03-18T15:51:45.743Z,6.10
2019-03-18T15:54:16.074Z,5.67
2019-03-18T15:56:46.329Z,4.70
2019-03-18T15:59:16.808Z,4.10
2019-03-18T16:01:47.047Z,5.90
2019-03-18T16:04:18.794Z,5.03
2019-03-18T16:06:49.019Z,7.47
2019-03-18T16:09:19.340Z,5.63
2019-03-18T16:11:49.680Z,6.03
2019-03-18T16:14:20.431Z,7.57
2019-03-18T16:17:01.616Z,5.50
2019-03-18T16:19:22.696Z,5.07
2019-03-18T16:21:53.014Z,5.93
2019-03-18T16:24:23.540Z,6.30
2019-03-18T16:26:53.862Z,5.10
2019-03-18T16:29:24.185Z,6.03
2019-03-18T16:31:54.430Z,5.10
2019-03-18T16:34:24.631Z,5.37
2019-03-18T16:36:55.157Z,6.70
2019-03-18T16:39:25.306Z,6.90
2019-03-18T16:41:55.606Z,4.00
2019-03-18T16:44:25.930Z,4.20
2019-03-18T16:46:56.351Z,6.07
2019-03-18T16:49:26.886Z,5.50
2019-03-18T16:51:57.204Z,6.10
2019-03-18T16:54:27.550Z,6.03
2019-03-18T16:56:57.863Z,4.80
2019-03-18T16:59:28.176Z,5.60
2019-03-18T17:01:58.604Z,4.70
2019-03-18T17:04:28.928Z,5.70
2019-03-18T17:06:59.253Z,5.13
2019-03-18T17:09:29.591Z,5.13
2019-03-18T17:12:00.077Z,4.40
2019-03-18T17:14:30.326Z,4.00
2019-03-18T17:17:01.058Z,5.00
2019-03-18T17:19:31.383Z,6.17
2019-03-18T17:22:01.809Z,5.20
2019-03-18T17:24:32.190Z,5.77
2019-03-18T17:27:02.894Z,6.40
2019-03-18T17:29:33.194Z,5.90
2019-03-18T17:32:03.517Z,5.83
2019-03-18T17:34:34.046Z,6.70
2019-03-18T17:37:04.367Z,7.37
2019-03-18T17:39:36.065Z,8.00
2019-03-18T17:42:06.349Z,6.23
2019-03-18T17:44:36.635Z,7.43
2019-03-18T17:47:07.617Z,8.10
2019-03-18T17:49:39.071Z,7.07
2019-03-18T17:52:09.387Z,6.60
2019-03-18T17:54:39.606Z,6.30
2019-03-18T17:57:11.269Z,5.83
2019-03-18T17:59:41.893Z,6.03
2019-03-18T18:02:12.321Z,7.00
2019-03-18T18:04:42.747Z,6.40
2019-03-18T18:07:12.967Z,8.03
2019-03-18T18:09:43.392Z,5.60
2019-03-18T18:12:13.718Z,9.00
2019-03-18T18:14:44.249Z,6.70
2019-03-18T18:17:14.786Z,6.10
2019-03-18T18:19:45.130Z,5.83
2019-03-18T18:22:15.347Z,5.20
2019-03-18T18:24:45.756Z,5.30
2019-03-18T18:27:15.971Z,5.60
2019-03-18T18:29:46.318Z,6.03
2019-03-18T18:32:18.157Z,6.00
2019-03-18T18:34:50.574Z,4.57
2019-03-18T18:37:23.285Z,5.57
2019-03-18T18:39:53.967Z,6.37
2019-03-18T18:42:24.382Z,6.17
2019-03-18T18:44:54.687Z,4.40
2019-03-18T18:47:25.118Z,4.83
2019-03-18T18:49:55.745Z,3.90
2019-03-18T18:52:26.075Z,4.10
2019-03-18T18:54:56.396Z,4.40
2019-03-18T18:57:26.718Z,4.47
2019-03-18T18:59:57.044Z,4.57
2019-03-18T19:02:27.318Z,4.80
2019-03-18T19:04:57.692Z,4.70
2019-03-18T19:07:28.117Z,6.10
2019-03-18T19:09:58.750Z,5.27
2019-03-18T19:12:29.176Z,5.23
2019-03-18T19:15:01.209Z,5.43
2019-03-18T19:17:31.563Z,6.50
2019-03-18T19:20:02.892Z,5.27
2019-03-18T19:22:33.489Z,5.63
2019-03-18T19:25:03.891Z,4.63
2019-03-18T19:27:34.140Z,4.37
2019-03-18T19:30:06.154Z,7.43
2019-03-18T19:32:37.033Z,5.50
2019-03-18T19:35:07.765Z,5.33
2019-03-18T19:37:39.637Z,4.97
2019-03-18T19:40:13.667Z,4.10
2019-03-18T19:42:43.917Z,4.63
2019-03-18T19:45:16.068Z,5.63
2019-03-18T19:47:46.646Z,4.57
2019-03-18T19:50:30.159Z,5.00
2019-03-18T19:53:02.543Z,5.40
2019-03-18T19:55:33.572Z,3.93
2019-03-18T19:58:03.952Z,5.60
2019-03-18T20:00:34.360Z,4.40
2019-03-18T20:03:04.552Z,4.70
2019-03-18T20:05:35.195Z,5.40
2019-03-18T20:08:05.695Z,5.17
2019-03-18T20:10:36.438Z,4.90
2019-03-18T20:13:09.648Z,5.40
2019-03-18T20:15:40.044Z,4.53
2019-03-18T20:18:10.381Z,4.77
2019-03-18T20:20:40.794Z,5.63
2019-03-18T20:23:11.233Z,6.50
2019-03-18T20:25:41.481Z,5.20
2019-03-18T20:28:11.748Z,3.90
2019-03-18T20:30:42.014Z,5.40
2019-03-18T20:33:12.652Z,4.90
2019-03-18T20:35:43.048Z,4.20
2019-03-18T20:38:13.573Z,5.47
2019-03-18T20:40:44.005Z,4.80
2019-03-18T20:43:14.251Z,4.97
2019-03-18T20:45:44.650Z,4.23
2019-03-18T20:48:15.051Z,4.53
2019-03-18T20:50:45.295Z,5.70
2019-03-18T20:53:15.887Z,8.43
2019-03-18T20:55:46.357Z,7.30
2019-03-18T20:58:16.889Z,7.50
2019-03-18T21:00:47.206Z,8.53
2019-03-18T21:03:17.533Z,10.67
2019-03-18T21:05:47.756Z,10.80
2019-03-18T21:08:18.178Z,11.20
2019-03-18T21:10:48.504Z,13.80
2019-03-18T21:13:19.031Z,16.40
2019-03-18T21:15:49.354Z,13.57
2019-03-18T21:18:19.780Z,13.70
2019-03-18T21:20:50.107Z,14.67
2019-03-18T21:23:20.429Z,16.03
2019-03-18T21:25:52.394Z,14.90
2019-03-18T21:28:22.634Z,15.93
2019-03-18T21:30:53.040Z,15.07
2019-03-18T21:33:23.671Z,14.70
2019-03-18T21:35:55.834Z,13.67
2019-03-18T21:38:25.862Z,14.90
2019-03-18T21:40:56.179Z,14.27
2019-03-18T21:43:26.941Z,15.10
2019-03-18T21:45:57.237Z,14.13
2019-03-18T21:48:27.565Z,14.00
2019-03-18T21:50:58.089Z,12.00
2019-03-18T21:53:28.616Z,17.77
2019-03-18T21:55:58.942Z,17.67
2019-03-18T21:58:29.270Z,17.60
2019-03-18T22:00:59.777Z,16.20
2019-03-18T22:03:30.124Z,14.60
2019-03-18T22:06:00.961Z,13.70
2019-03-18T22:08:31.798Z,17.17
2019-03-18T22:11:02.115Z,14.63
2019-03-18T22:13:32.645Z,13.40
2019-03-18T22:16:03.172Z,12.90
2019-03-18T22:18:33.499Z,11.13
2019-03-18T22:21:03.972Z,12.20
2019-03-18T22:23:34.350Z,10.53
2019-03-18T22:26:04.881Z,8.77
2019-03-18T22:28:35.511Z,9.33
2019-03-18T22:31:05.731Z,8.30
2019-03-18T22:33:36.056Z,7.80
2019-03-18T22:36:06.583Z,9.43
2019-03-18T22:38:36.763Z,6.70
2019-03-18T22:41:07.232Z,6.57
2019-03-18T22:43:37.557Z,6.13
2019-03-18T22:46:07.887Z,6.60
2019-03-18T22:48:38.204Z,5.83
2019-03-18T22:51:08.939Z,5.30
2019-03-18T22:53:39.650Z,6.23
2019-03-18T22:56:09.812Z,5.57
2019-03-18T22:58:40.026Z,6.03
2019-03-18T23:01:11.929Z,5.97
2019-03-18T23:03:42.401Z,4.50
2019-03-18T23:06:12.623Z,5.17
2019-03-18T23:08:42.949Z,5.07
2019-03-18T23:11:13.175Z,5.37
2019-03-18T23:13:43.596Z,5.33
2019-03-18T23:16:13.798Z,5.00
2019-03-18T23:18:43.985Z,5.33
2019-03-18T23:21:14.149Z,4.23
2019-03-18T23:23:44.372Z,4.00
2019-03-18T23:26:14.480Z,4.70
2019-03-18T23:28:44.630Z,4.53
2019-03-18T23:31:14.839Z,4.70
2019-03-18T23:33:45.268Z,4.40
2019-03-18T23:36:15.489Z,6.10
2019-03-18T23:38:46.019Z,3.40
2019-03-18T23:41:16.954Z,3.37
2019-03-18T23:43:47.202Z,4.13
2019-03-18T23:46:17.603Z,4.40
2019-03-18T23:48:47.932Z,3.97
2019-03-18T23:51:18.250Z,4.20
2019-03-18T23:53:48.576Z,4.40
2019-03-18T23:56:18.913Z,4.47
2019-03-18T23:58:49.122Z,3.63
